Home > Products > Valid Products > TAF

000
FTUS43 KABR 012300
TAFATY
TAF
KATY 012339Z 0200/0224 25011KT P6SM BKN090 OVC250
     FM021300 23012KT P6SM SCT080=



000
FTUS43 KABR 012300
TAFABR
TAF
KABR 012339Z 0200/0224 28005KT P6SM FEW060 BKN250
     FM020700 24006KT P6SM FEW080=



000
FTUS43 KABR 012300
TAFMBG
TAF
KMBG 012339Z 0200/0224 33007KT P6SM FEW100 BKN250
     FM020500 25007KT P6SM SKC
     FM021900 25010G18KT P6SM SKC=



000
FTUS43 KABR 012300
TAFPIR
TAF
KPIR 012339Z 0200/0224 33009KT P6SM FEW090 FEW110
     FM020400 27007KT P6SM SCT250
     FM021300 23010G17KT P6SM SKC=



000
FTUS43 KABR 012300 AAB
TAFMBG
TAF AMD
KMBG 012316Z 0123/0218 33007KT P6SM FEW100 BKN250
     FM020600 24007KT P6SM SKC=



000
FTUS43 KABR 012300 AAC
TAFPIR
TAF AMD
KPIR 012315Z 0123/0218 34011KT P6SM SCT090 BKN110 OVC250
     FM020200 29007KT P6SM SCT250
     FM020700 25006KT P6SM SKC=



000
FTUS43 KABR 012300 CCA
TAFATY
TAF COR
KATY 012313Z 0123/0218 24007KT P6SM -SHRA VCTS FEW060 BKN100CB
      BKN250
      TEMPO 0123/0124 VRB25G40KT -TSRA BKN060CB OVC100
     FM020000 29006KT P6SM FEW060 BKN250
     FM020800 24007KT P6SM SCT080=



000
FTUS43 KABR 012300 AAA
TAFATY
TAF AMD
KATY 012304Z 0123/0218 24007KT P6SM -SHRA VCTS FEW060 BKN100CB
      BKN250
      TEMPO 0123/0124 -TSRA BKN060CB OVC100
     FM020000 29006KT P6SM FEW060 BKN250
     FM020800 24007KT P6SM SCT080=



000
FTUS43 KABR 012300 AAA
TAFABR
TAF AMD
KABR 012302Z 0123/0218 28006KT P6SM FEW060 BKN250
     FM020700 23006KT P6SM FEW080=



000
FTUS43 KABR 012000 AAB
TAFPIR
TAF AMD
KPIR 012041Z 0121/0218 32013KT P6SM VCTS BKN070CB
     FM020200 25007KT P6SM SKC=



000
FTUS43 KABR 011900 AAA
TAFMBG
TAF AMD
KMBG 011910Z 0119/0218 31011KT P6SM VCSH BKN070
     FM020200 25007KT P6SM SKC=



000
FTUS43 KABR 011900 AAA
TAFPIR
TAF AMD
KPIR 011908Z 0119/0218 29013KT P6SM VCSH BKN070
     FM020200 25007KT P6SM SKC=



000
FTUS43 KABR 011700
TAFMBG
TAF
KMBG 011731Z 0118/0218 31010KT P6SM FEW070 FEW150
     FM012000 32013KT P6SM VCSH BKN080
     FM020200 25007KT P6SM SKC=



000
FTUS43 KABR 011700
TAFABR
TAF
KABR 011731Z 0118/0218 27010KT P6SM FEW060 FEW150
     FM012000 29012KT P6SM VCSH BKN080
     FM020200 23006KT P6SM FEW080=



000
FTUS43 KABR 011700
TAFPIR
TAF
KPIR 011731Z 0118/0218 27011KT P6SM FEW070 SCT150
     FM012000 29013KT P6SM VCSH BKN080
     FM020200 25007KT P6SM SKC=



000
FTUS43 KABR 011700
TAFATY
TAF
KATY 011731Z 0118/0218 28009KT P6SM SCT050
     FM012000 28012KT P6SM VCSH BKN070
     FM020200 24007KT P6SM SCT080=



000
FTUS43 KABR 011200 AAA
TAFATY
TAF AMD
KATY 011248Z 0113/0212 29008KT P6SM SCT150
      TEMPO 0113/0114 3SM BR
     FM012000 26013KT P6SM VCSH BKN070
     FM020200 22006KT P6SM SKC=



000
FTUS43 KABR 011100
TAFATY
TAF
KATY 011132Z 0112/0212 29008KT P6SM SCT150
     FM012000 26013KT P6SM VCSH BKN070
     FM020200 22006KT P6SM SKC=



000
FTUS43 KABR 011100
TAFABR
TAF
KABR 011132Z 0112/0212 27008KT P6SM SCT150
     FM011900 27013KT P6SM VCSH BKN070
     FM020100 20005KT P6SM SKC=



000
FTUS43 KABR 011100
TAFPIR
TAF
KPIR 011132Z 0112/0212 25009KT P6SM SKC
     FM011800 29014KT P6SM VCSH BKN080
     FM020100 22005KT P6SM SKC=



000
FTUS43 KABR 011100
TAFMBG
TAF
KMBG 011132Z 0112/0212 29008KT P6SM SKC
     FM011900 30014KT P6SM VCSH BKN080
     FM020100 21005KT P6SM SKC=



000
FTUS43 KABR 010500 CCA
TAFATY
TAF COR
KATY 010548Z 0106/0206 31006KT P6SM BKN100
      TEMPO 0106/0108 BKN015
     FM011800 27014KT P6SM VCSH BKN070
     FM020200 VRB04KT P6SM SCT250=



000
FTUS43 KABR 010500
TAFPIR
TAF
KPIR 010540Z 0106/0206 30009KT P6SM BKN100
     FM010800 25005KT P6SM SKC
     FM011700 29014KT P6SM VCSH BKN080
     FM020100 VRB03KT P6SM SCT250=



000
FTUS43 KABR 010500
TAFMBG
TAF
KMBG 010540Z 0106/0206 31007KT P6SM BKN080
     FM010800 30005KT P6SM SKC
     FM011600 29014KT P6SM VCSH BKN080
     FM020000 30006KT P6SM SCT250=



000
FTUS43 KABR 010500
TAFABR
TAF
KABR 010540Z 0106/0206 31006KT P6SM BKN100
     FM011700 28014KT P6SM VCSH BKN070
     FM020100 VRB04KT P6SM SCT250=



000
FTUS43 KABR 010500
TAFATY
TAF
KATY 010540Z 0106/0206 31006KT P6SM BKN100
     FM011800 27014KT P6SM VCSH BKN070
     FM020200 VRB04KT P6SM SCT250=



000
FTUS43 KABR 312300
TAFPIR
TAF
KPIR 312327Z 0100/0124 VRB05KT P6SM VCSH BKN100
     FM010400 VRB05KT P6SM BKN250
     FM011700 29010KT P6SM BKN250=



000
FTUS43 KABR 312300
TAFMBG
TAF
KMBG 312327Z 0100/0124 VRB05KT P6SM VCSH BKN100
     FM010400 31007KT P6SM BKN250
     FM011700 29011KT P6SM BKN250=



000
FTUS43 KABR 312300
TAFATY
TAF
KATY 312327Z 0100/0124 VRB05KT P6SM OVC120
     FM011700 29012KT P6SM BKN250=



000
FTUS43 KABR 312300
TAFABR
TAF
KABR 312327Z 0100/0124 VRB05KT P6SM BKN120
     FM011700 30012KT P6SM BKN250=



000
FTUS43 KABR 312000 AAA
TAFABR
TAF AMD
KABR 312056Z 3121/0118 24006KT P6SM -RA SCT028 OVC100
     FM010000 VRB04KT P6SM OVC100=



000
FTUS43 KABR 311900 AAA
TAFABR
TAF AMD
KABR 311906Z 3119/0118 25011KT P6SM -SHRA BKN023 OVC030
     FM010000 VRB04KT P6SM OVC100=



000
FTUS43 KABR 311700
TAFMBG
TAF
KMBG 311730Z 3118/0118 27009KT P6SM VCSH SCT017 BKN040
     FM312100 34008KT P6SM VCSH OVC070
     FM010000 22003KT P6SM OVC100=



000
FTUS43 KABR 311700
TAFABR
TAF
KABR 311730Z 3118/0118 27008KT P6SM BKN025
     FM311900 27010KT P6SM -SHRA SCT025 OVC070
     FM010000 VRB04KT P6SM OVC100=



000
FTUS43 KABR 311700
TAFPIR
TAF
KPIR 311730Z 3118/0118 24010KT P6SM -SHRA BKN100
     FM312200 29008KT P6SM BKN200
     FM010100 30005KT P6SM SKC=



000
FTUS43 KABR 311700
TAFATY
TAF
KATY 311730Z 3118/0118 24011KT P6SM BKN200
     FM312000 27010KT P6SM -SHRA BKN070
     FM010100 26004KT P6SM OVC100
     FM010900 34005KT P6SM OVC050=



000
FTUS43 KABR 311700 AAD
TAFMBG
TAF AMD
KMBG 311714Z 3117/0112 27007KT P6SM VCSH OVC016
     FM312100 34008KT P6SM VCSH OVC070
     FM010000 22003KT P6SM OVC100=



000
FTUS43 KABR 311700 AAA
TAFATY
TAF AMD
KATY 311712Z 3117/0112 24011KT P6SM SKC
     FM312000 27010KT P6SM -SHRA BKN070
     FM010100 26004KT P6SM OVC100
     FM010900 34005KT P6SM OVC050=



000
FTUS43 KABR 311700 AAB
TAFABR
TAF AMD
KABR 311709Z 3117/0112 27011KT P6SM OVC023
     FM311900 27010KT P6SM -SHRA OVC070
     FM010000 VRB04KT P6SM OVC100=



000
FTUS43 KABR 311600 AAA
TAFPIR
TAF AMD
KPIR 311659Z 3117/0112 24010KT P6SM -RA VCSH BKN100
     FM312200 29008KT P6SM BKN200
     FM010100 30005KT P6SM SKC=



000
FTUS43 KABR 311600 AAC
TAFMBG
TAF AMD
KMBG 311604Z 3116/0112 30010KT P6SM VCSH OVC010
     FM311800 29008KT P6SM BKN200
     FM010100 30005KT P6SM SKC=



000
FTUS43 KABR 311400 AAA
TAFABR
TAF AMD
KABR 311420Z 3114/0112 23007KT P6SM OVC012
     FM311700 29015KT P6SM VCSH BKN070
     FM010000 32007KT P6SM SKC=



000
FTUS43 KABR 311300 AAB
TAFMBG
TAF AMD
KMBG 311340Z 3114/0112 27008KT P6SM FEW009 BKN015
     FM311600 31014KT P6SM VCSH BKN070
     FM312200 29008KT P6SM BKN200
     FM010100 30005KT P6SM SKC=



000
FTUS43 KABR 311200 CCA
TAFABR
TAF COR
KABR 311242Z 3113/0112 21010KT P6SM SCT150
      TEMPO 3113/3114 BKN010
     FM311500 27014KT P6SM BKN150
     FM311900 29015KT P6SM VCSH BKN070
     FM010000 32007KT P6SM SKC=



000
FTUS43 KABR 311200 AAA
TAFABR
TAF AMD
KABR 311232Z 3113/0112 21010KT P6SM SCT150
      TEMPO 3113/3114 SCT007
     FM311500 27014KT P6SM BKN150
     FM311900 29015KT P6SM VCSH BKN070
     FM010000 32007KT P6SM SKC=



000
FTUS43 KABR 311200 AAA
TAFMBG
TAF AMD
KMBG 311226Z 3112/0112 29010KT P6SM SCT150
      TEMPO 3112/3114 BKN007
     FM311500 30013KT P6SM BKN100
     FM311800 31014KT P6SM VCSH BKN070
     FM312200 29008KT P6SM BKN200
     FM010100 30005KT P6SM SKC=



000
FTUS43 KABR 311100
TAFABR
TAF
KABR 311140Z 3112/0112 21010KT P6SM SCT150
     FM311500 27014KT P6SM BKN150
     FM311900 29015KT P6SM VCSH BKN070
     FM010000 32007KT P6SM SKC=



000
FTUS43 KABR 311100
TAFMBG
TAF
KMBG 311140Z 3112/0112 27010KT P6SM SCT150
     FM311500 30013KT P6SM BKN100
     FM311800 31014KT P6SM VCSH BKN070
     FM312200 29008KT P6SM BKN200
     FM010100 30005KT P6SM SKC=



000
FTUS43 KABR 311100
TAFPIR
TAF
KPIR 311140Z 3112/0112 26011KT P6SM SCT150
     FM311400 30013KT P6SM BKN100
     FM311700 30014KT P6SM VCSH BKN070
     FM312200 29008KT P6SM BKN200
     FM010100 30005KT P6SM SKC=



000
FTUS43 KABR 311100
TAFATY
TAF
KATY 311140Z 3112/0112 18011KT P6SM BKN150
     FM311500 22014KT P6SM BKN150
     FM311700 27015KT P6SM BKN150
     FM312100 27013KT P6SM VCSH BKN070
     FM010200 31008KT P6SM SKC=



000
FTUS43 KABR 310700 AAA
TAFATY
TAF AMD
KATY 310735Z 3108/0106 15011KT P6SM BKN200
      TEMPO 3108/3109 P6SM -TSRA BKN050CB
     FM311500 22014KT P6SM BKN040
     FM312200 27013KT P6SM VCTS SCT040CB BKN060
     FM010200 29010KT P6SM VCSH BKN050=



000
FTUS43 KABR 310500
TAFPIR
TAF
KPIR 310540Z 3106/0106 14011KT P6SM BKN100
     FM310900 24011KT P6SM BKN100
     FM311500 30013KT P6SM BKN050
     FM010000 31009KT P6SM BKN200=



000
FTUS43 KABR 310500
TAFMBG
TAF
KMBG 310540Z 3106/0106 14015KT P6SM BKN100
      TEMPO 3106/3107 P6SM -SHRA
     FM311100 32010KT P6SM BKN100
     FM311500 32009KT P6SM BKN050
     FM010100 34005KT P6SM BKN250=



000
FTUS43 KABR 310500
TAFATY
TAF
KATY 310540Z 3106/0106 15011KT P6SM BKN200
     FM311500 22014KT P6SM BKN040
     FM312200 27013KT P6SM VCTS SCT040CB BKN060
     FM010200 29010KT P6SM VCSH BKN050=



000
FTUS43 KABR 310500
TAFABR
TAF
KABR 310540Z 3106/0106 14010KT P6SM OVC200
     FM310700 14010KT P6SM VCTS BKN070CB
      TEMPO 3107/3109 P6SM -SHRA BKN040
     FM310900 16013KT P6SM BKN100
     FM311500 25011KT P6SM BKN040
     FM312000 29012KT P6SM VCSH BKN050=



000
FTUS43 KABR 302300
TAFMBG
TAF
KMBG 302328Z 3100/3124 14012KT P6SM SKC
     FM310400 11015KT P6SM VCTS BKN050CB
     FM310700 15008KT P6SM OVC050
     FM311300 31010KT P6SM OVC050=



000
FTUS43 KABR 302300
TAFPIR
TAF
KPIR 302328Z 3100/3124 13015G23KT P6SM SKC
     FM310600 21010KT P6SM OVC200
     FM311400 32010KT P6SM OVC050=



000
FTUS43 KABR 302300
TAFABR
TAF
KABR 302328Z 3100/3124 16007KT P6SM SKC
     FM310700 15012KT P6SM OVC100
      TEMPO 3111/3115 OVC007
     FM312100 26009KT P6SM VCTS OVC050CB=



000
FTUS43 KABR 302300
TAFATY
TAF
KATY 302328Z 3100/3124 VRB05KT P6SM SKC
     FM310900 16014KT P6SM OVC100
      TEMPO 3110/3114 OVC015
     FM312100 25010KT P6SM VCTS OVC050CB=



000
FTUS43 KABR 302000 AAA
TAFMBG
TAF AMD
KMBG 302050Z 3021/3118 16010KT P6SM SKC
     FM310600 13017KT P6SM OVC100
     FM311100 29012KT 4SM BR OVC007=



000
FTUS43 KABR 302000 AAA
TAFATY
TAF AMD
KATY 302050Z 3021/3118 20007KT P6SM BKN025
     FM310000 15005KT P6SM SCT250
     FM311100 20014KT P6SM OVC050=



000
FTUS43 KABR 302000 AAA
TAFABR
TAF AMD
KABR 302049Z 3021/3118 13005KT P6SM SCT030
     FM310600 15011KT P6SM OVC100
     FM311100 17013KT P6SM OVC004=



000
FTUS43 KABR 301900 AAA
TAFPIR
TAF AMD
KPIR 301919Z 3019/3118 10012KT P6SM SKC
     FM302100 13014KT P6SM SCT200
     FM310900 21010KT P6SM OVC100
     FM311100 29012KT 5SM BR BKN010=



000
FTUS43 KABR 301900 AAA
TAFABR
TAF AMD
KABR 301919Z 3019/3118 00000KT P6SM BKN029
     FM302100 13005KT P6SM SKC
     FM310600 15011KT P6SM OVC100
     FM311100 17013KT P6SM OVC004=



000
FTUS43 KABR 301700 CCA
TAFATY
TAF COR
KATY 301751Z 3018/3118 VRB03KT P6SM OVC011
     FM302100 30005KT P6SM BKN020
     FM310000 15005KT P6SM SCT250
     FM311100 20014KT P6SM OVC050=



000
FTUS43 KABR 301700
TAFMBG
TAF
KMBG 301736Z 3018/3118 14011KT P6SM SKC
     FM302000 15012G20KT P6SM FEW250
     FM310600 13017KT P6SM OVC100
     FM311100 29012KT 4SM BR OVC007=



000
FTUS43 KABR 301700
TAFPIR
TAF
KPIR 301736Z 3018/3118 15006KT P6SM SKC
     FM302100 13014KT P6SM SCT200
     FM310900 21010KT P6SM OVC100
     FM311100 29012KT 5SM BR BKN010=



000
FTUS43 KABR 301700
TAFATY
TAF
KATY 301736Z 3018/3118 29003KT P6SM OVC008
     FM302100 30005KT P6SM BKN020
     FM310000 15005KT P6SM SCT250
     FM311100 20014KT P6SM OVC050=



000
FTUS43 KABR 301700
TAFABR
TAF
KABR 301736Z 3018/3118 10004KT P6SM SCT022
      TEMPO 3018/3019 BKN022
     FM302100 13005KT P6SM SKC
     FM310600 15011KT P6SM OVC100
     FM311100 17013KT P6SM OVC004=



000
FTUS43 KABR 301700 AAC
TAFATY
TAF AMD
KATY 301703Z 3017/3112 29003KT P6SM OVC008
     FM302100 30005KT P6SM BKN020
     FM310000 15005KT P6SM SCT250
     FM311100 20014KT P6SM OVC050=



000
FTUS43 KABR 301700 AAC
TAFABR
TAF AMD
KABR 301701Z 3017/3112 10004KT P6SM FEW020
     FM302100 13005KT P6SM SKC
     FM310600 15011KT P6SM OVC100
     FM311100 17013KT P6SM OVC004=



000
FTUS43 KABR 301600 AAB
TAFMBG
TAF AMD
KMBG 301657Z 3017/3112 14011KT P6SM SKC
     FM302000 15012G20KT P6SM FEW250
     FM310600 13017KT P6SM OVC100
     FM311100 29012KT 4SM BR OVC007=



000
FTUS43 KABR 301600 AAF
TAFPIR
TAF AMD
KPIR 301655Z 3017/3112 15006KT P6SM SKC
     FM302100 13014KT P6SM SCT200
     FM310900 21010KT P6SM OVC100
     FM311100 29012KT 5SM BR BKN010=



000
FTUS43 KABR 301600 AAB
TAFATY
TAF AMD
KATY 301623Z 3016/3112 33006KT P6SM OVC007
     FM301800 30005KT P6SM BKN015
     FM310000 14004KT P6SM SKC=



000
FTUS43 KABR 301500 AAE
TAFPIR
TAF AMD
KPIR 301540Z 3016/3112 12006KT P6SM BKN009
     FM301600 13017G25KT P6SM SCT012
     FM310000 15014KT P6SM BKN120
     FM310700 21011KT P6SM SCT250=



000
FTUS43 KABR 301500 AAB
TAFABR
TAF AMD
KABR 301536Z 3016/3112 01008KT P6SM BKN012
     FM301800 15013KT P6SM BKN030
     FM310200 16015KT P6SM BKN100=



000
FTUS43 KABR 301500 AAA
TAFMBG
TAF AMD
KMBG 301514Z 3015/3112 17007KT P6SM BKN007
     FM301600 14017G25KT P6SM SCT010
     FM310000 15015KT P6SM BKN080
     FM310600 24013KT P6SM SCT200=



000
FTUS43 KABR 301500 AAD
TAFPIR
TAF AMD
KPIR 301501Z 3015/3112 12006KT P6SM BKN009
     FM301700 13017G25KT P6SM SCT250
     FM310000 15014KT P6SM BKN120
     FM310700 21011KT P6SM SCT250=



000
FTUS43 KABR 301400 AAA
TAFATY
TAF AMD
KATY 301418Z 3014/3112 33009KT P6SM OVC008
     FM301600 04005KT P6SM BKN012
     FM302100 14009KT P6SM SKC
     FM310400 17015KT P6SM SCT100=



000
FTUS43 KABR 301400 AAA
TAFABR
TAF AMD
KABR 301417Z 3014/3112 34007KT P6SM FEW008 OVC015
     FM301600 03005KT P6SM SKC
     FM302100 15013KT P6SM SCT250
     FM310200 16015KT P6SM BKN100=



000
FTUS43 KABR 301300 AAC
TAFPIR
TAF AMD
KPIR 301314Z 3013/3112 09003KT 5SM BR SKC
     FM301400 12008KT P6SM SKC
     FM301900 13017G25KT P6SM SCT250
     FM310000 15014KT P6SM BKN120
     FM310700 21011KT P6SM SCT250=



000
FTUS43 KABR 301200 AAB
TAFPIR
TAF AMD
KPIR 301244Z 3013/3112 05005KT 3SM BR SKC
      TEMPO 3013/3014 3/4SM BR VV002
     FM301400 12008KT P6SM SKC
     FM301900 13017G25KT P6SM SCT250
     FM310000 15014KT P6SM BKN120
     FM310700 21011KT P6SM SCT250=



000
FTUS43 KABR 301200 AAA
TAFPIR
TAF AMD
KPIR 301225Z 3012/3112 05005KT 3SM BR SKC
      TEMPO 3012/3014 1SM BR
     FM301400 12008KT P6SM SKC
     FM301900 13017G25KT P6SM SCT250
     FM310000 15014KT P6SM BKN120
     FM310700 21011KT P6SM SCT250=



000
FTUS43 KABR 301100
TAFMBG
TAF
KMBG 301134Z 3012/3112 06005KT P6SM SKC
     FM301500 12008KT P6SM SKC
     FM301900 14017G25KT P6SM SCT250
     FM310000 15015KT P6SM BKN080
     FM310600 24013KT P6SM SCT200=



000
FTUS43 KABR 301100
TAFPIR
TAF
KPIR 301134Z 3012/3112 05005KT P6SM SKC
     FM301500 12008KT P6SM SKC
     FM301900 13017G25KT P6SM SCT250
     FM310000 15014KT P6SM BKN120
     FM310700 21011KT P6SM SCT250=



000
FTUS43 KABR 301100
TAFATY
TAF
KATY 301134Z 3012/3112 35009KT P6SM OVC005
      TEMPO 3012/3014 3SM BR OVC003
     FM301500 36005KT P6SM BKN008
     FM301700 04005KT P6SM SKC
     FM302300 14009KT P6SM SKC
     FM310400 17015KT P6SM SCT100=



000
FTUS43 KABR 301100
TAFABR
TAF
KABR 301134Z 3012/3112 36007KT P6SM BKN015
     FM301400 36006KT P6SM SCT020
     FM301600 03005KT P6SM SKC
     FM302100 15013KT P6SM SCT250
     FM310200 16015KT P6SM BKN100=



000
FTUS43 KABR 300900 AAA
TAFATY
TAF AMD
KATY 300905Z 3009/3106 36011KT P6SM OVC005
     FM301400 VRB03KT P6SM BKN010
     FM301900 12006KT P6SM SKC=



000
FTUS43 KABR 300900 AAA
TAFMBG
TAF AMD
KMBG 300904Z 3009/3106 04005KT P6SM SKC
      TEMPO 3009/3011 2SM BR
     FM301400 12007KT P6SM SKC
     FM302000 12017G25KT P6SM BKN250=



000
FTUS43 KABR 300500 CCA
TAFATY
TAF COR
KATY 300543Z 3006/3106 36011KT P6SM OVC006
     FM301400 VRB03KT P6SM BKN010
     FM301900 12006KT P6SM SKC=



000
FTUS43 KABR 300500
TAFPIR
TAF
KPIR 300539Z 3006/3106 03005KT P6SM SKC
      TEMPO 3008/3012 5SM BR
     FM301400 13009KT P6SM SKC
     FM302000 13017G25KT P6SM BKN250=



000
FTUS43 KABR 300500
TAFMBG
TAF
KMBG 300539Z 3006/3106 04005KT P6SM SKC
      TEMPO 3008/3012 5SM BR
     FM301400 12007KT P6SM SKC
     FM302000 12017G25KT P6SM BKN250=



000
FTUS43 KABR 300500
TAFATY
TAF
KATY 300539Z 3006/3106 36011KT P6SM OVC010
      TEMPO 3006/3009 OVC006
     FM301400 VRB03KT P6SM BKN015
     FM301900 12006KT P6SM SKC=



000
FTUS43 KABR 300500
TAFABR
TAF
KABR 300539Z 3006/3106 36011KT P6SM OVC015
     FM301400 03006KT P6SM SKC
     FM301700 12006KT P6SM SKC
     FM302100 15013KT P6SM SKC=



000
FTUS43 KABR 300400 AAC
TAFATY
TAF AMD
KATY 300439Z 3005/3024 34011KT P6SM VCSH OVC009
     FM301400 VRB05KT P6SM BKN015
     FM301900 VRB05KT P6SM SCT015=



000
FTUS43 KABR 300400 AAB
TAFABR
TAF AMD
KABR 300424Z 3004/3024 36014G20KT P6SM BKN015
     FM300700 36006KT 3SM BR BKN015
     FM301600 01006KT P6SM SCT030=



000
FTUS43 KABR 300400 AAB
TAFMBG
TAF AMD
KMBG 300402Z 3004/3024 02009KT P6SM SCT150
     FM300600 VRB03KT P6SM BKN020
     FM301300 14007KT P6SM FEW060
     FM302000 14015KT P6SM SCT150=



000
FTUS43 KABR 300300 AAB
TAFATY
TAF AMD
KATY 300354Z 3004/3024 33015KT P6SM VCSH BKN015
     FM300500 34008KT 2SM BR BKN007
     FM301400 VRB05KT P6SM BKN015
     FM301900 VRB05KT P6SM SCT015=



000
FTUS43 KABR 300300 AAA
TAFATY
TAF AMD
KATY 300327Z 3003/3024 34011KT P6SM VCSH BKN025
     FM300500 34008KT 2SM BR BKN007
     FM301400 VRB05KT P6SM BKN015
     FM301900 VRB05KT P6SM SCT015=



000
FTUS43 KABR 300300 AAA
TAFABR
TAF AMD
KABR 300300Z 3003/3024 34014G22KT P6SM BKN015
     FM300500 36006KT 3SM BR BKN015
     FM301600 01006KT P6SM SCT030=



000
FTUS43 KABR 300200 AAA
TAFMBG
TAF AMD
KMBG 300223Z 3002/3024 02009KT P6SM SCT150
     FM300400 VRB03KT P6SM BKN020
     FM301300 14007KT P6SM FEW060
     FM302000 14015KT P6SM SCT150=



000
FTUS43 KABR 300200 AAA
TAFPIR
TAF AMD
KPIR 300222Z 3002/3024 36007KT P6SM SKC
     FM301000 07006KT 2SM BR SKC
     FM301300 13009KT P6SM SCT050=



    US Dept of Commerce
    National Oceanic and Atmospheric Administration
    National Weather Service
    1325 East West Highway
    Silver Spring, MD 20910
    Page Author: NWS Internet Services Team
Disclaimer
Information Quality
Credits
Glossary
Privacy Policy
Freedom of Information Act (FOIA)
About Us
Career Opportunities